sensor_id;sensor_type;location;lat;lon;timestamp;temperature;humidity
62998;DHT22;55949;52.590;7.330;2023-02-28T00:00:23;4.50;99.90
62998;DHT22;55949;52.590;7.330;2023-02-28T00:01:24;4.50;99.90
62998;DHT22;55949;52.590;7.330;2023-02-28T00:02:25;4.50;99.90
62998;DHT22;55949;52.590;7.330;2023-02-28T00:03:25;4.60;99.90
62998;DHT22;55949;52.590;7.330;2023-02-28T00:04:26;4.70;99.90
62998;DHT22;55949;52.590;7.330;2023-02-28T00:05:27;4.60;99.90
62998;DHT22;55949;52.590;7.330;2023-02-28T00:06:28;4.60;99.90
62998;DHT22;55949;52.590;7.330;2023-02-28T00:07:30;4.90;99.90
62998;DHT22;55949;52.590;7.330;2023-02-28T00:08:30;4.90;99.90
62998;DHT22;55949;52.590;7.330;2023-02-28T00:09:31;4.80;99.90
62998;DHT22;55949;52.590;7.330;2023-02-28T00:10:32;4.70;99.90
62998;DHT22;55949;52.590;7.330;2023-02-28T00:11:32;4.80;99.90
62998;DHT22;55949;52.590;7.330;2023-02-28T00:12:34;4.80;99.90
62998;DHT22;55949;52.590;7.330;2023-02-28T00:13:38;4.80;99.90
62998;DHT22;55949;52.590;7.330;2023-02-28T00:14:39;4.70;99.90
62998;DHT22;55949;52.590;7.330;2023-02-28T00:15:40;4.80;99.90
62998;DHT22;55949;52.590;7.330;2023-02-28T00:16:40;4.70;99.90
62998;DHT22;55949;52.590;7.330;2023-02-28T00:17:41;4.60;99.90
62998;DHT22;55949;52.590;7.330;2023-02-28T00:18:42;4.50;99.90
62998;DHT22;55949;52.590;7.330;2023-02-28T00:19:43;4.50;99.90
62998;DHT22;55949;52.590;7.330;2023-02-28T00:20:43;4.60;99.90
62998;DHT22;55949;52.590;7.330;2023-02-28T00:21:44;4.60;99.90
62998;DHT22;55949;52.590;7.330;2023-02-28T00:22:50;4.60;99.90
62998;DHT22;55949;52.590;7.330;2023-02-28T00:23:51;4.70;99.90
62998;DHT22;55949;52.590;7.330;2023-02-28T00:24:52;4.90;99.90
62998;DHT22;55949;52.590;7.330;2023-02-28T00:25:53;5.00;99.90
62998;DHT22;55949;52.590;7.330;2023-02-28T00:26:54;5.30;99.90
62998;DHT22;55949;52.590;7.330;2023-02-28T00:27:54;5.60;99.90
62998;DHT22;55949;52.590;7.330;2023-02-28T00:28:55;5.60;99.90
62998;DHT22;55949;52.590;7.330;2023-02-28T00:29:56;5.40;99.90
62998;DHT22;55949;52.590;7.330;2023-02-28T00:30:57;5.30;99.90
62998;DHT22;55949;52.590;7.330;2023-02-28T00:31:58;5.20;99.90
62998;DHT22;55949;52.590;7.330;2023-02-28T00:32:58;5.10;99.90
62998;DHT22;55949;52.590;7.330;2023-02-28T00:33:59;5.20;99.90
62998;DHT22;55949;52.590;7.330;2023-02-28T00:35:00;5.10;99.90
62998;DHT22;55949;52.590;7.330;2023-02-28T00:36:03;5.20;99.90
62998;DHT22;55949;52.590;7.330;2023-02-28T00:37:09;5.10;99.90
62998;DHT22;55949;52.590;7.330;2023-02-28T00:38:10;5.00;99.90
62998;DHT22;55949;52.590;7.330;2023-02-28T00:39:11;4.90;99.90
62998;DHT22;55949;52.590;7.330;2023-02-28T00:40:12;4.70;99.90
62998;DHT22;55949;52.590;7.330;2023-02-28T00:41:13;4.60;99.90
62998;DHT22;55949;52.590;7.330;2023-02-28T00:42:13;4.50;99.90
62998;DHT22;55949;52.590;7.330;2023-02-28T00:43:14;4.50;99.90
62998;DHT22;55949;52.590;7.330;2023-02-28T00:44:15;4.40;99.90
62998;DHT22;55949;52.590;7.330;2023-02-28T00:45:15;4.40;99.90
62998;DHT22;55949;52.590;7.330;2023-02-28T00:46:16;4.40;99.90
62998;DHT22;55949;52.590;7.330;2023-02-28T00:47:17;4.40;99.90
62998;DHT22;55949;52.590;7.330;2023-02-28T00:48:17;4.40;99.90
62998;DHT22;55949;52.590;7.330;2023-02-28T00:49:18;4.40;99.90
62998;DHT22;55949;52.590;7.330;2023-02-28T00:50:19;4.40;99.90
62998;DHT22;55949;52.590;7.330;2023-02-28T00:51:20;4.40;99.90
62998;DHT22;55949;52.590;7.330;2023-02-28T00:52:21;4.30;99.90
62998;DHT22;55949;52.590;7.330;2023-02-28T00:53:22;4.30;99.90
62998;DHT22;55949;52.590;7.330;2023-02-28T00:54:23;4.30;99.90
62998;DHT22;55949;52.590;7.330;2023-02-28T00:55:23;4.30;99.90
62998;DHT22;55949;52.590;7.330;2023-02-28T00:56:27;4.30;99.90
62998;DHT22;55949;52.590;7.330;2023-02-28T00:57:27;4.30;99.90
62998;DHT22;55949;52.590;7.330;2023-02-28T00:58:28;4.30;99.90
62998;DHT22;55949;52.590;7.330;2023-02-28T00:59:29;4.30;99.90
62998;DHT22;55949;52.590;7.330;2023-02-28T01:00:30;4.40;99.90
62998;DHT22;55949;52.590;7.330;2023-02-28T01:01:31;4.40;99.90
62998;DHT22;55949;52.590;7.330;2023-02-28T01:02:32;4.50;99.90
62998;DHT22;55949;52.590;7.330;2023-02-28T01:03:32;4.50;99.90
62998;DHT22;55949;52.590;7.330;2023-02-28T01:04:33;4.50;99.90
62998;DHT22;55949;52.590;7.330;2023-02-28T01:05:34;4.40;99.90
62998;DHT22;55949;52.590;7.330;2023-02-28T01:06:34;4.40;99.90
62998;DHT22;55949;52.590;7.330;2023-02-28T01:07:36;4.50;99.90
62998;DHT22;55949;52.590;7.330;2023-02-28T01:08:37;4.50;99.90
62998;DHT22;55949;52.590;7.330;2023-02-28T01:09:37;4.40;99.90
62998;DHT22;55949;52.590;7.330;2023-02-28T01:10:38;4.30;99.90
62998;DHT22;55949;52.590;7.330;2023-02-28T01:11:39;4.30;99.90
62998;DHT22;55949;52.590;7.330;2023-02-28T01:12:41;4.30;99.90
62998;DHT22;55949;52.590;7.330;2023-02-28T01:13:43;4.20;99.90
62998;DHT22;55949;52.590;7.330;2023-02-28T01:14:44;4.30;99.90
62998;DHT22;55949;52.590;7.330;2023-02-28T01:15:50;4.30;99.90
62998;DHT22;55949;52.590;7.330;2023-02-28T01:16:51;4.40;99.90
62998;DHT22;55949;52.590;7.330;2023-02-28T01:17:52;4.30;99.90
62998;DHT22;55949;52.590;7.330;2023-02-28T01:18:53;4.40;99.90
62998;DHT22;55949;52.590;7.330;2023-02-28T01:19:55;4.40;99.90
62998;DHT22;55949;52.590;7.330;2023-02-28T01:20:56;4.40;99.90
62998;DHT22;55949;52.590;7.330;2023-02-28T01:21:57;4.40;99.90
62998;DHT22;55949;52.590;7.330;2023-02-28T01:23:00;4.30;99.90
62998;DHT22;55949;52.590;7.330;2023-02-28T01:24:02;4.40;99.90
62998;DHT22;55949;52.590;7.330;2023-02-28T01:25:03;4.40;99.90
62998;DHT22;55949;52.590;7.330;2023-02-28T01:26:08;4.30;99.90
62998;DHT22;55949;52.590;7.330;2023-02-28T01:27:09;4.40;99.90
62998;DHT22;55949;52.590;7.330;2023-02-28T01:28:10;4.40;99.90
62998;DHT22;55949;52.590;7.330;2023-02-28T01:29:11;4.40;99.90
62998;DHT22;55949;52.590;7.330;2023-02-28T01:30:12;4.30;99.90
62998;DHT22;55949;52.590;7.330;2023-02-28T01:31:13;4.40;99.90
62998;DHT22;55949;52.590;7.330;2023-02-28T01:32:14;4.50;99.90
62998;DHT22;55949;52.590;7.330;2023-02-28T01:33:14;4.60;99.90
62998;DHT22;55949;52.590;7.330;2023-02-28T01:34:15;4.50;99.90
62998;DHT22;55949;52.590;7.330;2023-02-28T01:35:16;4.50;99.90
62998;DHT22;55949;52.590;7.330;2023-02-28T01:36:19;4.60;99.90
62998;DHT22;55949;52.590;7.330;2023-02-28T01:37:20;4.50;99.90
62998;DHT22;55949;52.590;7.330;2023-02-28T01:38:21;4.40;99.90
62998;DHT22;55949;52.590;7.330;2023-02-28T01:39:22;4.40;99.90
62998;DHT22;55949;52.590;7.330;2023-02-28T01:40:23;4.40;99.90
62998;DHT22;55949;52.590;7.330;2023-02-28T01:41:27;4.30;99.90
62998;DHT22;55949;52.590;7.330;2023-02-28T01:42:27;4.20;99.90
62998;DHT22;55949;52.590;7.330;2023-02-28T01:43:30;4.30;99.90
62998;DHT22;55949;52.590;7.330;2023-02-28T01:46:00;4.20;99.90
62998;DHT22;55949;52.590;7.330;2023-02-28T01:47:01;4.20;99.90
62998;DHT22;55949;52.590;7.330;2023-02-28T01:48:07;4.20;99.90
62998;DHT22;55949;52.590;7.330;2023-02-28T01:49:12;4.20;99.90
62998;DHT22;55949;52.590;7.330;2023-02-28T01:50:17;4.20;99.90
62998;DHT22;55949;52.590;7.330;2023-02-28T01:51:31;4.10;99.90
62998;DHT22;55949;52.590;7.330;2023-02-28T01:52:34;4.00;99.90
62998;DHT22;55949;52.590;7.330;2023-02-28T01:53:37;3.90;99.90
62998;DHT22;55949;52.590;7.330;2023-02-28T01:54:39;4.00;99.90
62998;DHT22;55949;52.590;7.330;2023-02-28T01:55:41;4.00;99.90
62998;DHT22;55949;52.590;7.330;2023-02-28T01:56:57;3.90;99.90
62998;DHT22;55949;52.590;7.330;2023-02-28T01:58:01;4.00;99.90
62998;DHT22;55949;52.590;7.330;2023-02-28T01:59:03;4.00;99.90
62998;DHT22;55949;52.590;7.330;2023-02-28T02:00:08;4.10;99.90
62998;DHT22;55949;52.590;7.330;2023-02-28T02:01:09;4.10;99.90
62998;DHT22;55949;52.590;7.330;2023-02-28T02:02:23;4.00;99.90
62998;DHT22;55949;52.590;7.330;2023-02-28T02:03:24;4.00;99.90
62998;DHT22;55949;52.590;7.330;2023-02-28T02:04:27;4.00;99.90
62998;DHT22;55949;52.590;7.330;2023-02-28T02:05:31;4.00;99.90
62998;DHT22;55949;52.590;7.330;2023-02-28T02:06:38;3.90;99.90
62998;DHT22;55949;52.590;7.330;2023-02-28T02:07:43;3.90;99.90
62998;DHT22;55949;52.590;7.330;2023-02-28T02:08:45;3.90;99.90
62998;DHT22;55949;52.590;7.330;2023-02-28T02:09:46;4.00;99.90
62998;DHT22;55949;52.590;7.330;2023-02-28T02:10:57;4.00;99.90
62998;DHT22;55949;52.590;7.330;2023-02-28T02:11:59;4.20;99.90
62998;DHT22;55949;52.590;7.330;2023-02-28T02:17:36;4.20;99.90
62998;DHT22;55949;52.590;7.330;2023-02-28T02:18:54;4.10;99.90
62998;DHT22;55949;52.590;7.330;2023-02-28T02:34:33;4.40;99.90
62998;DHT22;55949;52.590;7.330;2023-02-28T02:37:18;4.30;99.90
62998;DHT22;55949;52.590;7.330;2023-02-28T02:39:47;4.60;99.90
62998;DHT22;55949;52.590;7.330;2023-02-28T02:41:14;4.70;99.90
62998;DHT22;55949;52.590;7.330;2023-02-28T02:42:41;4.60;99.90
62998;DHT22;55949;52.590;7.330;2023-02-28T02:45:10;4.60;99.90
62998;DHT22;55949;52.590;7.330;2023-02-28T02:46:19;4.50;99.90
62998;DHT22;55949;52.590;7.330;2023-02-28T02:47:22;4.40;99.90
62998;DHT22;55949;52.590;7.330;2023-02-28T02:48:29;4.40;99.90
62998;DHT22;55949;52.590;7.330;2023-02-28T02:49:32;4.40;99.90
62998;DHT22;55949;52.590;7.330;2023-02-28T02:50:39;4.30;99.90
62998;DHT22;55949;52.590;7.330;2023-02-28T02:51:44;4.30;99.90
62998;DHT22;55949;52.590;7.330;2023-02-28T02:52:51;4.20;99.90
62998;DHT22;55949;52.590;7.330;2023-02-28T02:53:58;4.10;99.90
62998;DHT22;55949;52.590;7.330;2023-02-28T02:55:02;4.10;99.90
62998;DHT22;55949;52.590;7.330;2023-02-28T02:56:04;4.10;99.90
62998;DHT22;55949;52.590;7.330;2023-02-28T02:57:24;4.20;99.90
62998;DHT22;55949;52.590;7.330;2023-02-28T02:58:30;4.20;99.90
62998;DHT22;55949;52.590;7.330;2023-02-28T02:59:32;4.20;99.90
62998;DHT22;55949;52.590;7.330;2023-02-28T03:00:37;4.20;99.90
62998;DHT22;55949;52.590;7.330;2023-02-28T03:01:41;4.20;99.90
62998;DHT22;55949;52.590;7.330;2023-02-28T03:02:43;4.20;99.90
62998;DHT22;55949;52.590;7.330;2023-02-28T03:03:45;4.40;99.90
62998;DHT22;55949;52.590;7.330;2023-02-28T03:04:51;4.40;99.90
62998;DHT22;55949;52.590;7.330;2023-02-28T03:05:52;4.40;99.90
62998;DHT22;55949;52.590;7.330;2023-02-28T03:06:53;4.50;99.90
62998;DHT22;55949;52.590;7.330;2023-02-28T03:07:55;4.50;99.90
62998;DHT22;55949;52.590;7.330;2023-02-28T03:08:55;4.40;99.90
62998;DHT22;55949;52.590;7.330;2023-02-28T03:09:57;4.40;99.90
62998;DHT22;55949;52.590;7.330;2023-02-28T03:11:06;4.40;99.90
62998;DHT22;55949;52.590;7.330;2023-02-28T03:12:12;4.30;99.90
62998;DHT22;55949;52.590;7.330;2023-02-28T03:17:22;4.20;99.90
62998;DHT22;55949;52.590;7.330;2023-02-28T03:20:01;4.10;99.90
62998;DHT22;55949;52.590;7.330;2023-02-28T03:24:07;4.50;99.90
62998;DHT22;55949;52.590;7.330;2023-02-28T03:25:35;4.40;99.90
62998;DHT22;55949;52.590;7.330;2023-02-28T03:26:42;4.30;99.90
62998;DHT22;55949;52.590;7.330;2023-02-28T03:28:36;4.30;99.90
62998;DHT22;55949;52.590;7.330;2023-02-28T03:29:23;4.70;99.90
62998;DHT22;55949;52.590;7.330;2023-02-28T03:34:41;4.40;99.90
62998;DHT22;55949;52.590;7.330;2023-02-28T03:35:48;4.30;99.90
62998;DHT22;55949;52.590;7.330;2023-02-28T03:36:56;4.30;99.90
62998;DHT22;55949;52.590;7.330;2023-02-28T03:39:37;4.20;99.90
62998;DHT22;55949;52.590;7.330;2023-02-28T03:40:39;4.20;99.90
62998;DHT22;55949;52.590;7.330;2023-02-28T03:42:51;4.20;99.90
62998;DHT22;55949;52.590;7.330;2023-02-28T03:44:24;4.30;99.90
62998;DHT22;55949;52.590;7.330;2023-02-28T03:45:30;4.30;99.90
62998;DHT22;55949;52.590;7.330;2023-02-28T03:46:37;4.40;99.90
62998;DHT22;55949;52.590;7.330;2023-02-28T03:47:57;4.40;99.90
62998;DHT22;55949;52.590;7.330;2023-02-28T03:49:13;4.40;99.90
62998;DHT22;55949;52.590;7.330;2023-02-28T03:50:25;4.40;99.90
62998;DHT22;55949;52.590;7.330;2023-02-28T03:51:29;4.50;99.90
62998;DHT22;55949;52.590;7.330;2023-02-28T03:52:35;4.50;99.90
62998;DHT22;55949;52.590;7.330;2023-02-28T03:54:03;4.40;99.90
62998;DHT22;55949;52.590;7.330;2023-02-28T03:55:10;4.30;99.90
62998;DHT22;55949;52.590;7.330;2023-02-28T03:56:20;4.20;99.90
62998;DHT22;55949;52.590;7.330;2023-02-28T03:59:18;4.00;99.90
62998;DHT22;55949;52.590;7.330;2023-02-28T04:00:35;4.00;99.90
62998;DHT22;55949;52.590;7.330;2023-02-28T04:01:44;4.00;99.90
62998;DHT22;55949;52.590;7.330;2023-02-28T04:02:46;4.00;99.90
62998;DHT22;55949;52.590;7.330;2023-02-28T04:03:46;4.10;99.90
62998;DHT22;55949;52.590;7.330;2023-02-28T04:04:48;4.10;99.90
62998;DHT22;55949;52.590;7.330;2023-02-28T04:05:52;4.10;99.90
62998;DHT22;55949;52.590;7.330;2023-02-28T04:07:04;4.10;99.90
62998;DHT22;55949;52.590;7.330;2023-02-28T04:08:06;4.00;99.90
62998;DHT22;55949;52.590;7.330;2023-02-28T04:09:09;4.00;99.90
62998;DHT22;55949;52.590;7.330;2023-02-28T04:10:12;4.10;99.90
62998;DHT22;55949;52.590;7.330;2023-02-28T04:11:27;4.10;99.90
62998;DHT22;55949;52.590;7.330;2023-02-28T04:12:30;4.20;99.90
62998;DHT22;55949;52.590;7.330;2023-02-28T04:13:31;4.20;99.90
62998;DHT22;55949;52.590;7.330;2023-02-28T04:14:31;4.10;99.90
62998;DHT22;55949;52.590;7.330;2023-02-28T04:15:32;4.20;99.90
62998;DHT22;55949;52.590;7.330;2023-02-28T04:16:34;4.10;99.90
62998;DHT22;55949;52.590;7.330;2023-02-28T04:17:35;4.10;99.90
62998;DHT22;55949;52.590;7.330;2023-02-28T04:18:36;4.10;99.90
62998;DHT22;55949;52.590;7.330;2023-02-28T04:19:37;4.10;99.90
62998;DHT22;55949;52.590;7.330;2023-02-28T04:20:37;4.20;99.90
62998;DHT22;55949;52.590;7.330;2023-02-28T04:21:44;4.20;99.90
62998;DHT22;55949;52.590;7.330;2023-02-28T04:22:45;4.10;99.90
62998;DHT22;55949;52.590;7.330;2023-02-28T04:23:46;4.10;99.90
62998;DHT22;55949;52.590;7.330;2023-02-28T04:24:46;4.00;99.90
62998;DHT22;55949;52.590;7.330;2023-02-28T04:25:47;4.00;99.90
62998;DHT22;55949;52.590;7.330;2023-02-28T04:26:50;4.00;99.90
62998;DHT22;55949;52.590;7.330;2023-02-28T04:27:51;4.20;99.90
62998;DHT22;55949;52.590;7.330;2023-02-28T04:28:52;4.50;99.90
62998;DHT22;55949;52.590;7.330;2023-02-28T04:29:52;4.80;99.90
62998;DHT22;55949;52.590;7.330;2023-02-28T04:31:03;4.70;99.90
62998;DHT22;55949;52.590;7.330;2023-02-28T04:32:04;4.60;99.90
62998;DHT22;55949;52.590;7.330;2023-02-28T04:33:05;4.50;99.90
62998;DHT22;55949;52.590;7.330;2023-02-28T04:34:06;4.40;99.90
62998;DHT22;55949;52.590;7.330;2023-02-28T04:35:07;4.20;99.90
62998;DHT22;55949;52.590;7.330;2023-02-28T04:36:08;4.40;99.90
62998;DHT22;55949;52.590;7.330;2023-02-28T04:37:09;4.30;99.90
62998;DHT22;55949;52.590;7.330;2023-02-28T04:38:10;4.10;99.90
62998;DHT22;55949;52.590;7.330;2023-02-28T04:39:11;4.00;99.90
62998;DHT22;55949;52.590;7.330;2023-02-28T04:40:12;4.00;99.90
62998;DHT22;55949;52.590;7.330;2023-02-28T04:41:13;3.80;99.90
62998;DHT22;55949;52.590;7.330;2023-02-28T04:42:14;3.80;99.90
62998;DHT22;55949;52.590;7.330;2023-02-28T04:43:15;3.60;99.90
62998;DHT22;55949;52.590;7.330;2023-02-28T04:44:16;3.60;99.90
62998;DHT22;55949;52.590;7.330;2023-02-28T04:45:17;3.50;99.90
62998;DHT22;55949;52.590;7.330;2023-02-28T04:46:17;3.30;99.90
62998;DHT22;55949;52.590;7.330;2023-02-28T04:47:18;3.30;99.90
62998;DHT22;55949;52.590;7.330;2023-02-28T04:48:19;3.40;99.90
62998;DHT22;55949;52.590;7.330;2023-02-28T04:49:20;3.30;99.90
62998;DHT22;55949;52.590;7.330;2023-02-28T04:50:20;3.30;99.90
62998;DHT22;55949;52.590;7.330;2023-02-28T04:51:21;3.30;99.90
62998;DHT22;55949;52.590;7.330;2023-02-28T04:52:22;3.50;99.90
62998;DHT22;55949;52.590;7.330;2023-02-28T04:53:23;3.80;99.90
62998;DHT22;55949;52.590;7.330;2023-02-28T04:54:23;3.90;99.90
62998;DHT22;55949;52.590;7.330;2023-02-28T04:55:24;4.10;99.90
62998;DHT22;55949;52.590;7.330;2023-02-28T04:56:25;4.50;99.90
62998;DHT22;55949;52.590;7.330;2023-02-28T04:57:26;4.70;99.90
62998;DHT22;55949;52.590;7.330;2023-02-28T04:58:27;4.60;99.90
62998;DHT22;55949;52.590;7.330;2023-02-28T04:59:28;4.50;99.90
62998;DHT22;55949;52.590;7.330;2023-02-28T05:00:29;4.40;99.90
62998;DHT22;55949;52.590;7.330;2023-02-28T05:01:32;4.30;99.90
62998;DHT22;55949;52.590;7.330;2023-02-28T05:02:34;4.20;99.90
62998;DHT22;55949;52.590;7.330;2023-02-28T05:03:35;4.00;99.90
62998;DHT22;55949;52.590;7.330;2023-02-28T05:04:36;3.80;99.90
62998;DHT22;55949;52.590;7.330;2023-02-28T05:05:37;3.90;99.90
62998;DHT22;55949;52.590;7.330;2023-02-28T05:06:38;3.80;99.90
62998;DHT22;55949;52.590;7.330;2023-02-28T05:07:38;3.80;99.90
62998;DHT22;55949;52.590;7.330;2023-02-28T05:08:39;3.80;99.90
62998;DHT22;55949;52.590;7.330;2023-02-28T05:09:40;3.70;99.90
62998;DHT22;55949;52.590;7.330;2023-02-28T05:10:41;3.70;99.90
62998;DHT22;55949;52.590;7.330;2023-02-28T05:11:41;3.60;99.90
62998;DHT22;55949;52.590;7.330;2023-02-28T05:12:42;3.70;99.90
62998;DHT22;55949;52.590;7.330;2023-02-28T05:13:44;3.80;99.90
62998;DHT22;55949;52.590;7.330;2023-02-28T05:14:44;3.80;99.90
62998;DHT22;55949;52.590;7.330;2023-02-28T05:15:45;3.80;99.90
62998;DHT22;55949;52.590;7.330;2023-02-28T05:16:46;3.70;99.90
62998;DHT22;55949;52.590;7.330;2023-02-28T05:17:46;3.80;99.90
62998;DHT22;55949;52.590;7.330;2023-02-28T05:18:47;3.80;99.90
62998;DHT22;55949;52.590;7.330;2023-02-28T05:19:48;3.80;99.90
62998;DHT22;55949;52.590;7.330;2023-02-28T05:20:49;3.80;99.90
62998;DHT22;55949;52.590;7.330;2023-02-28T05:21:52;3.70;99.90
62998;DHT22;55949;52.590;7.330;2023-02-28T05:22:53;3.60;99.90
62998;DHT22;55949;52.590;7.330;2023-02-28T05:23:55;3.60;99.90
62998;DHT22;55949;52.590;7.330;2023-02-28T05:24:56;3.70;99.90
62998;DHT22;55949;52.590;7.330;2023-02-28T05:25:57;3.70;99.90
62998;DHT22;55949;52.590;7.330;2023-02-28T05:26:57;3.60;99.90
62998;DHT22;55949;52.590;7.330;2023-02-28T05:27:58;3.60;99.90
62998;DHT22;55949;52.590;7.330;2023-02-28T05:28:59;3.50;99.90
62998;DHT22;55949;52.590;7.330;2023-02-28T05:29:59;3.50;99.90
62998;DHT22;55949;52.590;7.330;2023-02-28T05:31:03;3.40;99.90
62998;DHT22;55949;52.590;7.330;2023-02-28T05:32:04;3.40;99.90
62998;DHT22;55949;52.590;7.330;2023-02-28T05:33:05;3.40;99.90
62998;DHT22;55949;52.590;7.330;2023-02-28T05:34:06;3.40;99.90
62998;DHT22;55949;52.590;7.330;2023-02-28T05:35:07;3.40;99.90
62998;DHT22;55949;52.590;7.330;2023-02-28T05:36:08;3.30;99.90
62998;DHT22;55949;52.590;7.330;2023-02-28T05:37:12;3.30;99.90
62998;DHT22;55949;52.590;7.330;2023-02-28T05:38:13;3.20;99.90
62998;DHT22;55949;52.590;7.330;2023-02-28T05:39:13;3.30;99.90
62998;DHT22;55949;52.590;7.330;2023-02-28T05:40:14;3.40;99.90
62998;DHT22;55949;52.590;7.330;2023-02-28T05:41:16;3.40;99.90
62998;DHT22;55949;52.590;7.330;2023-02-28T05:42:17;3.30;99.90
62998;DHT22;55949;52.590;7.330;2023-02-28T05:43:18;3.30;99.90
62998;DHT22;55949;52.590;7.330;2023-02-28T05:44:19;3.30;99.90
62998;DHT22;55949;52.590;7.330;2023-02-28T05:45:19;3.30;99.90
62998;DHT22;55949;52.590;7.330;2023-02-28T05:46:20;3.30;99.90
62998;DHT22;55949;52.590;7.330;2023-02-28T05:47:21;3.30;99.90
62998;DHT22;55949;52.590;7.330;2023-02-28T05:48:21;3.40;99.90
62998;DHT22;55949;52.590;7.330;2023-02-28T05:49:22;3.50;99.90
62998;DHT22;55949;52.590;7.330;2023-02-28T05:50:23;3.60;99.90
62998;DHT22;55949;52.590;7.330;2023-02-28T05:51:23;3.60;99.90
62998;DHT22;55949;52.590;7.330;2023-02-28T05:52:24;3.50;99.90
62998;DHT22;55949;52.590;7.330;2023-02-28T05:53:25;3.50;99.90
62998;DHT22;55949;52.590;7.330;2023-02-28T05:54:26;3.60;99.90
62998;DHT22;55949;52.590;7.330;2023-02-28T05:55:27;3.50;99.90
62998;DHT22;55949;52.590;7.330;2023-02-28T05:56:28;3.60;99.90
62998;DHT22;55949;52.590;7.330;2023-02-28T05:57:28;3.70;99.90
62998;DHT22;55949;52.590;7.330;2023-02-28T05:58:29;3.60;99.90
62998;DHT22;55949;52.590;7.330;2023-02-28T05:59:31;3.60;99.90
62998;DHT22;55949;52.590;7.330;2023-02-28T06:00:31;3.70;99.90
62998;DHT22;55949;52.590;7.330;2023-02-28T06:01:42;3.80;99.90
62998;DHT22;55949;52.590;7.330;2023-02-28T06:02:48;3.80;99.90
62998;DHT22;55949;52.590;7.330;2023-02-28T06:03:49;3.60;99.90
62998;DHT22;55949;52.590;7.330;2023-02-28T06:04:50;3.60;99.90
62998;DHT22;55949;52.590;7.330;2023-02-28T06:05:51;3.70;99.90
62998;DHT22;55949;52.590;7.330;2023-02-28T06:06:52;3.80;99.90
62998;DHT22;55949;52.590;7.330;2023-02-28T06:07:52;3.80;99.90
62998;DHT22;55949;52.590;7.330;2023-02-28T06:08:53;3.80;99.90
62998;DHT22;55949;52.590;7.330;2023-02-28T06:09:54;3.70;99.90
62998;DHT22;55949;52.590;7.330;2023-02-28T06:10:55;3.60;99.90
62998;DHT22;55949;52.590;7.330;2023-02-28T06:11:58;3.60;99.90
62998;DHT22;55949;52.590;7.330;2023-02-28T06:13:00;3.60;99.90
62998;DHT22;55949;52.590;7.330;2023-02-28T06:14:03;3.50;99.90
62998;DHT22;55949;52.590;7.330;2023-02-28T06:15:04;3.60;99.90
62998;DHT22;55949;52.590;7.330;2023-02-28T06:16:05;3.70;99.90
62998;DHT22;55949;52.590;7.330;2023-02-28T06:17:06;4.10;99.90
62998;DHT22;55949;52.590;7.330;2023-02-28T06:18:07;4.10;99.90
62998;DHT22;55949;52.590;7.330;2023-02-28T06:19:09;4.20;99.90
62998;DHT22;55949;52.590;7.330;2023-02-28T06:20:11;4.10;99.90
62998;DHT22;55949;52.590;7.330;2023-02-28T06:21:13;4.10;99.90
62998;DHT22;55949;52.590;7.330;2023-02-28T06:22:14;4.10;99.90
62998;DHT22;55949;52.590;7.330;2023-02-28T06:23:14;4.00;99.90
62998;DHT22;55949;52.590;7.330;2023-02-28T06:24:15;3.90;99.90
62998;DHT22;55949;52.590;7.330;2023-02-28T06:25:15;3.80;99.90
62998;DHT22;55949;52.590;7.330;2023-02-28T06:26:16;3.80;99.90
62998;DHT22;55949;52.590;7.330;2023-02-28T06:27:17;3.80;99.90
62998;DHT22;55949;52.590;7.330;2023-02-28T06:28:18;3.90;99.90
62998;DHT22;55949;52.590;7.330;2023-02-28T06:29:18;3.80;99.90
62998;DHT22;55949;52.590;7.330;2023-02-28T06:30:20;3.80;99.90
62998;DHT22;55949;52.590;7.330;2023-02-28T06:31:26;3.80;99.90
62998;DHT22;55949;52.590;7.330;2023-02-28T06:32:29;3.80;99.90
62998;DHT22;55949;52.590;7.330;2023-02-28T06:33:29;3.90;99.90
62998;DHT22;55949;52.590;7.330;2023-02-28T06:34:30;3.90;99.90
62998;DHT22;55949;52.590;7.330;2023-02-28T06:35:31;3.90;99.90
62998;DHT22;55949;52.590;7.330;2023-02-28T06:36:32;3.90;99.90
62998;DHT22;55949;52.590;7.330;2023-02-28T06:37:33;3.80;99.90
62998;DHT22;55949;52.590;7.330;2023-02-28T06:38:34;3.90;99.90
62998;DHT22;55949;52.590;7.330;2023-02-28T06:39:35;3.80;99.90
62998;DHT22;55949;52.590;7.330;2023-02-28T06:40:35;3.80;99.90
62998;DHT22;55949;52.590;7.330;2023-02-28T06:41:36;3.80;99.90
62998;DHT22;55949;52.590;7.330;2023-02-28T06:42:38;3.80;99.90
62998;DHT22;55949;52.590;7.330;2023-02-28T06:43:41;3.90;99.90
62998;DHT22;55949;52.590;7.330;2023-02-28T06:44:41;4.00;99.90
62998;DHT22;55949;52.590;7.330;2023-02-28T06:45:43;4.20;99.90
62998;DHT22;55949;52.590;7.330;2023-02-28T06:46:45;4.30;99.90
62998;DHT22;55949;52.590;7.330;2023-02-28T06:47:46;4.20;99.90
62998;DHT22;55949;52.590;7.330;2023-02-28T06:48:52;4.10;99.90
62998;DHT22;55949;52.590;7.330;2023-02-28T06:49:52;4.10;99.90
62998;DHT22;55949;52.590;7.330;2023-02-28T06:51:11;4.10;99.90
62998;DHT22;55949;52.590;7.330;2023-02-28T06:52:13;3.90;99.90
62998;DHT22;55949;52.590;7.330;2023-02-28T06:53:14;4.00;99.90
62998;DHT22;55949;52.590;7.330;2023-02-28T06:54:15;4.00;99.90
62998;DHT22;55949;52.590;7.330;2023-02-28T06:55:16;3.90;99.90
62998;DHT22;55949;52.590;7.330;2023-02-28T06:56:19;4.00;99.90
62998;DHT22;55949;52.590;7.330;2023-02-28T06:57:20;4.00;99.90
62998;DHT22;55949;52.590;7.330;2023-02-28T06:58:21;4.10;99.90
62998;DHT22;55949;52.590;7.330;2023-02-28T06:59:22;4.10;99.90
62998;DHT22;55949;52.590;7.330;2023-02-28T07:00:23;4.10;99.90
62998;DHT22;55949;52.590;7.330;2023-02-28T07:01:23;4.10;99.90
62998;DHT22;55949;52.590;7.330;2023-02-28T07:02:24;4.00;99.90
62998;DHT22;55949;52.590;7.330;2023-02-28T07:03:25;4.00;99.90
62998;DHT22;55949;52.590;7.330;2023-02-28T07:04:26;4.00;99.90
62998;DHT22;55949;52.590;7.330;2023-02-28T07:05:26;4.00;99.90
62998;DHT22;55949;52.590;7.330;2023-02-28T07:06:27;4.10;99.90
62998;DHT22;55949;52.590;7.330;2023-02-28T07:07:28;4.20;99.90
62998;DHT22;55949;52.590;7.330;2023-02-28T07:08:29;4.40;99.90
62998;DHT22;55949;52.590;7.330;2023-02-28T07:09:29;4.40;99.90
62998;DHT22;55949;52.590;7.330;2023-02-28T07:10:30;4.50;99.90
62998;DHT22;55949;52.590;7.330;2023-02-28T07:11:31;4.40;99.90
62998;DHT22;55949;52.590;7.330;2023-02-28T07:12:32;4.40;99.90
62998;DHT22;55949;52.590;7.330;2023-02-28T07:13:33;4.40;99.90
62998;DHT22;55949;52.590;7.330;2023-02-28T07:14:33;4.40;99.90
62998;DHT22;55949;52.590;7.330;2023-02-28T07:15:37;4.40;99.90
62998;DHT22;55949;52.590;7.330;2023-02-28T07:16:37;4.40;99.90
62998;DHT22;55949;52.590;7.330;2023-02-28T07:17:38;4.60;99.90
62998;DHT22;55949;52.590;7.330;2023-02-28T07:18:39;4.70;99.90
62998;DHT22;55949;52.590;7.330;2023-02-28T07:19:39;4.90;99.90
62998;DHT22;55949;52.590;7.330;2023-02-28T07:20:40;4.90;99.90
62998;DHT22;55949;52.590;7.330;2023-02-28T07:21:41;5.10;99.90
62998;DHT22;55949;52.590;7.330;2023-02-28T07:22:41;5.20;99.90
62998;DHT22;55949;52.590;7.330;2023-02-28T07:23:42;5.20;99.90
62998;DHT22;55949;52.590;7.330;2023-02-28T07:24:43;5.20;99.90